mercredi 19 février 2014

ALERTE SPOTTING 19/02/14

320 F-HDMF Air Corsica (cyclistes)
   XK4511/XK4500  08h30/09h25
 XK4505/XK4504  19h55/21h00

73G EI-EUZ Transaero
  UN555/UN556  12h15/13h45

Manque les prévisions/immats UX / BE / AZ / TP / BA / TU / certains AH
*** Heures en Local Time / prévisions soumises
 à modifications de dernières minutes ***

le TAF de la journée

METAR: LFPO 190330Z 22004KT 8000 -RA FEW029 BKN040 06/05 Q1013 NOSIG=

TAF LONG: LFPO 182300Z 1900/2006 20008KT CAVOK BECMG 1901/1903 BKN017 TEMPO
1903/1908 3000 -RA SCT005 BKN012 BECMG 1909/1912 SCT020 PROB30 TEMPO
1910/1916 7000 -SHRA BKN020 BECMG 2000/2003 19013KT 8000 BKN035
TEMPO 2003/2006 4000 -RADZ BKN006

 Les logs des jours précédents :
 http://www.airkalo.com/ORLYAVIATION/Logdumois.html